sensor_id;sensor_type;location;lat;lon;timestamp;P1;durP1;ratioP1;P2;durP2;ratioP2
16531;SDS011;66872;63.142;14.482;2024-03-23T00:55:27;0.70;;;0.70;;
16531;SDS011;66872;63.142;14.482;2024-03-23T00:57:53;0.80;;;0.80;;
16531;SDS011;66872;63.142;14.482;2024-03-23T01:00:18;0.60;;;0.60;;
16531;SDS011;66872;63.142;14.482;2024-03-23T01:02:44;0.83;;;0.80;;
16531;SDS011;66872;63.142;14.482;2024-03-23T01:05:10;0.77;;;0.77;;
16531;SDS011;66872;63.142;14.482;2024-03-23T01:07:35;0.60;;;0.60;;
16531;SDS011;66872;63.142;14.482;2024-03-23T01:10:01;0.50;;;0.50;;
16531;SDS011;66872;63.142;14.482;2024-03-23T01:12:27;0.77;;;0.70;;
16531;SDS011;66872;63.142;14.482;2024-03-23T01:14:52;0.60;;;0.50;;
16531;SDS011;66872;63.142;14.482;2024-03-23T01:17:18;0.50;;;0.50;;
16531;SDS011;66872;63.142;14.482;2024-03-23T01:19:43;0.60;;;0.60;;
16531;SDS011;66872;63.142;14.482;2024-03-23T01:22:09;1.23;;;0.70;;
16531;SDS011;66872;63.142;14.482;2024-03-23T01:24:35;0.70;;;0.70;;
16531;SDS011;66872;63.142;14.482;2024-03-23T01:27:01;0.73;;;0.60;;
16531;SDS011;66872;63.142;14.482;2024-03-23T01:29:26;0.60;;;0.60;;
16531;SDS011;66872;63.142;14.482;2024-03-23T01:31:52;0.73;;;0.60;;
16531;SDS011;66872;63.142;14.482;2024-03-23T01:34:18;0.70;;;0.70;;
16531;SDS011;66872;63.142;14.482;2024-03-23T01:36:45;0.67;;;0.60;;
16531;SDS011;66872;63.142;14.482;2024-03-23T01:39:11;0.70;;;0.70;;
16531;SDS011;66872;63.142;14.482;2024-03-23T01:41:37;0.50;;;0.50;;
16531;SDS011;66872;63.142;14.482;2024-03-23T01:44:07;0.90;;;0.70;;
16531;SDS011;66872;63.142;14.482;2024-03-23T01:46:33;0.90;;;0.70;;
16531;SDS011;66872;63.142;14.482;2024-03-23T01:48:59;0.60;;;0.60;;
16531;SDS011;66872;63.142;14.482;2024-03-23T01:51:26;1.00;;;0.90;;
16531;SDS011;66872;63.142;14.482;2024-03-23T01:53:52;0.70;;;0.70;;
16531;SDS011;66872;63.142;14.482;2024-03-23T01:56:18;0.67;;;0.63;;
16531;SDS011;66872;63.142;14.482;2024-03-23T01:58:45;0.60;;;0.60;;
16531;SDS011;66872;63.142;14.482;2024-03-23T02:01:10;0.60;;;0.60;;
16531;SDS011;66872;63.142;14.482;2024-03-23T02:03:36;0.67;;;0.67;;
16531;SDS011;66872;63.142;14.482;2024-03-23T02:06:02;0.80;;;0.70;;
16531;SDS011;66872;63.142;14.482;2024-03-23T02:08:27;0.97;;;0.63;;
16531;SDS011;66872;63.142;14.482;2024-03-23T02:10:55;0.63;;;0.63;;
16531;SDS011;66872;63.142;14.482;2024-03-23T02:13:20;1.00;;;0.90;;
16531;SDS011;66872;63.142;14.482;2024-03-23T02:15:46;0.63;;;0.60;;
16531;SDS011;66872;63.142;14.482;2024-03-23T02:18:12;0.60;;;0.60;;
16531;SDS011;66872;63.142;14.482;2024-03-23T02:20:37;0.63;;;0.60;;
16531;SDS011;66872;63.142;14.482;2024-03-23T02:23:04;0.70;;;0.70;;
16531;SDS011;66872;63.142;14.482;2024-03-23T02:25:32;0.70;;;0.53;;
16531;SDS011;66872;63.142;14.482;2024-03-23T02:27:58;0.50;;;0.50;;
16531;SDS011;66872;63.142;14.482;2024-03-23T02:30:25;0.50;;;0.50;;
16531;SDS011;66872;63.142;14.482;2024-03-23T02:32:51;0.50;;;0.50;;
16531;SDS011;66872;63.142;14.482;2024-03-23T02:35:16;0.80;;;0.53;;
16531;SDS011;66872;63.142;14.482;2024-03-23T02:37:42;0.73;;;0.67;;
16531;SDS011;66872;63.142;14.482;2024-03-23T02:40:08;0.97;;;0.70;;
16531;SDS011;66872;63.142;14.482;2024-03-23T02:42:34;0.50;;;0.50;;
16531;SDS011;66872;63.142;14.482;2024-03-23T02:44:59;1.03;;;0.80;;
16531;SDS011;66872;63.142;14.482;2024-03-23T02:47:25;0.80;;;0.60;;
16531;SDS011;66872;63.142;14.482;2024-03-23T02:49:51;0.73;;;0.73;;
16531;SDS011;66872;63.142;14.482;2024-03-23T02:52:17;0.70;;;0.70;;
16531;SDS011;66872;63.142;14.482;2024-03-23T02:54:42;0.90;;;0.80;;
16531;SDS011;66872;63.142;14.482;2024-03-23T02:57:10;0.97;;;0.60;;
16531;SDS011;66872;63.142;14.482;2024-03-23T02:59:36;0.83;;;0.80;;
16531;SDS011;66872;63.142;14.482;2024-03-23T03:02:01;0.60;;;0.60;;
16531;SDS011;66872;63.142;14.482;2024-03-23T03:04:29;0.60;;;0.60;;
16531;SDS011;66872;63.142;14.482;2024-03-23T03:06:55;0.53;;;0.53;;
16531;SDS011;66872;63.142;14.482;2024-03-23T03:09:21;0.53;;;0.53;;
16531;SDS011;66872;63.142;14.482;2024-03-23T03:11:47;0.53;;;0.53;;
16531;SDS011;66872;63.142;14.482;2024-03-23T03:14:12;1.17;;;0.90;;
16531;SDS011;66872;63.142;14.482;2024-03-23T03:16:38;0.63;;;0.63;;
16531;SDS011;66872;63.142;14.482;2024-03-23T03:19:04;0.80;;;0.70;;
16531;SDS011;66872;63.142;14.482;2024-03-23T03:21:29;0.53;;;0.53;;
16531;SDS011;66872;63.142;14.482;2024-03-23T03:23:55;1.13;;;0.70;;
16531;SDS011;66872;63.142;14.482;2024-03-23T03:26:22;0.70;;;0.70;;
16531;SDS011;66872;63.142;14.482;2024-03-23T03:28:47;0.60;;;0.60;;
16531;SDS011;66872;63.142;14.482;2024-03-23T03:31:17;0.97;;;0.87;;
16531;SDS011;66872;63.142;14.482;2024-03-23T03:33:43;0.73;;;0.73;;
16531;SDS011;66872;63.142;14.482;2024-03-23T03:36:09;0.80;;;0.70;;
16531;SDS011;66872;63.142;14.482;2024-03-23T03:38:35;1.10;;;0.80;;
16531;SDS011;66872;63.142;14.482;2024-03-23T03:41:01;0.80;;;0.80;;
16531;SDS011;66872;63.142;14.482;2024-03-23T03:43:27;1.00;;;0.60;;
16531;SDS011;66872;63.142;14.482;2024-03-23T03:45:53;0.60;;;0.60;;
16531;SDS011;66872;63.142;14.482;2024-03-23T03:48:19;0.70;;;0.70;;
16531;SDS011;66872;63.142;14.482;2024-03-23T03:50:45;0.70;;;0.60;;
16531;SDS011;66872;63.142;14.482;2024-03-23T03:53:10;0.70;;;0.70;;
16531;SDS011;66872;63.142;14.482;2024-03-23T03:55:36;0.60;;;0.60;;
16531;SDS011;66872;63.142;14.482;2024-03-23T03:58:02;0.80;;;0.70;;
16531;SDS011;66872;63.142;14.482;2024-03-23T04:00:28;0.90;;;0.80;;
16531;SDS011;66872;63.142;14.482;2024-03-23T04:02:53;1.00;;;0.60;;
16531;SDS011;66872;63.142;14.482;2024-03-23T04:05:19;0.60;;;0.60;;
16531;SDS011;66872;63.142;14.482;2024-03-23T04:07:45;0.90;;;0.77;;
16531;SDS011;66872;63.142;14.482;2024-03-23T04:10:11;0.60;;;0.60;;
16531;SDS011;66872;63.142;14.482;2024-03-23T04:12:36;0.60;;;0.60;;
16531;SDS011;66872;63.142;14.482;2024-03-23T04:15:02;0.63;;;0.60;;
16531;SDS011;66872;63.142;14.482;2024-03-23T04:17:30;0.60;;;0.60;;
16531;SDS011;66872;63.142;14.482;2024-03-23T04:19:59;0.70;;;0.70;;
16531;SDS011;66872;63.142;14.482;2024-03-23T04:22:26;0.80;;;0.80;;
16531;SDS011;66872;63.142;14.482;2024-03-23T04:24:55;1.30;;;0.97;;
16531;SDS011;66872;63.142;14.482;2024-03-23T04:27:22;0.73;;;0.70;;
16531;SDS011;66872;63.142;14.482;2024-03-23T04:29:51;1.50;;;0.77;;
16531;SDS011;66872;63.142;14.482;2024-03-23T04:32:20;0.70;;;0.70;;
16531;SDS011;66872;63.142;14.482;2024-03-23T04:34:46;0.60;;;0.60;;
16531;SDS011;66872;63.142;14.482;2024-03-23T04:37:12;0.50;;;0.50;;
16531;SDS011;66872;63.142;14.482;2024-03-23T04:39:38;0.87;;;0.73;;
16531;SDS011;66872;63.142;14.482;2024-03-23T04:42:04;0.60;;;0.60;;
16531;SDS011;66872;63.142;14.482;2024-03-23T04:44:30;0.80;;;0.70;;
16531;SDS011;66872;63.142;14.482;2024-03-23T04:46:56;0.60;;;0.60;;
16531;SDS011;66872;63.142;14.482;2024-03-23T04:49:22;0.60;;;0.60;;
16531;SDS011;66872;63.142;14.482;2024-03-23T04:51:48;0.70;;;0.70;;
16531;SDS011;66872;63.142;14.482;2024-03-23T04:54:13;1.27;;;0.90;;
16531;SDS011;66872;63.142;14.482;2024-03-23T04:56:39;0.60;;;0.60;;
16531;SDS011;66872;63.142;14.482;2024-03-23T04:59:05;0.80;;;0.80;;
16531;SDS011;66872;63.142;14.482;2024-03-23T05:01:31;0.70;;;0.70;;
16531;SDS011;66872;63.142;14.482;2024-03-23T05:03:57;0.70;;;0.70;;
16531;SDS011;66872;63.142;14.482;2024-03-23T05:06:23;0.80;;;0.80;;
16531;SDS011;66872;63.142;14.482;2024-03-23T05:08:50;0.60;;;0.60;;
16531;SDS011;66872;63.142;14.482;2024-03-23T05:11:19;0.73;;;0.67;;
16531;SDS011;66872;63.142;14.482;2024-03-23T05:13:45;0.70;;;0.60;;
16531;SDS011;66872;63.142;14.482;2024-03-23T05:16:11;0.80;;;0.80;;
16531;SDS011;66872;63.142;14.482;2024-03-23T05:18:37;0.93;;;0.83;;
16531;SDS011;66872;63.142;14.482;2024-03-23T05:21:03;0.50;;;0.50;;
16531;SDS011;66872;63.142;14.482;2024-03-23T05:23:28;0.80;;;0.80;;
16531;SDS011;66872;63.142;14.482;2024-03-23T05:25:55;0.63;;;0.63;;
16531;SDS011;66872;63.142;14.482;2024-03-23T05:28:21;0.97;;;0.80;;
16531;SDS011;66872;63.142;14.482;2024-03-23T05:30:51;0.70;;;0.70;;
16531;SDS011;66872;63.142;14.482;2024-03-23T05:33:20;0.70;;;0.70;;
16531;SDS011;66872;63.142;14.482;2024-03-23T05:35:46;0.67;;;0.67;;
16531;SDS011;66872;63.142;14.482;2024-03-23T05:38:20;0.50;;;0.50;;
16531;SDS011;66872;63.142;14.482;2024-03-23T05:40:55;0.73;;;0.73;;
16531;SDS011;66872;63.142;14.482;2024-03-23T05:43:31;0.80;;;0.80;;
16531;SDS011;66872;63.142;14.482;2024-03-23T05:45:58;0.83;;;0.83;;
16531;SDS011;66872;63.142;14.482;2024-03-23T05:48:25;0.50;;;0.50;;
16531;SDS011;66872;63.142;14.482;2024-03-23T05:50:51;0.83;;;0.83;;
16531;SDS011;66872;63.142;14.482;2024-03-23T05:53:18;0.70;;;0.70;;
16531;SDS011;66872;63.142;14.482;2024-03-23T05:55:45;0.50;;;0.50;;
16531;SDS011;66872;63.142;14.482;2024-03-23T05:58:12;0.63;;;0.63;;
16531;SDS011;66872;63.142;14.482;2024-03-23T06:00:39;0.80;;;0.80;;
16531;SDS011;66872;63.142;14.482;2024-03-23T06:03:05;1.20;;;0.77;;
16531;SDS011;66872;63.142;14.482;2024-03-23T06:05:31;0.60;;;0.60;;
16531;SDS011;66872;63.142;14.482;2024-03-23T06:07:57;0.70;;;0.70;;
16531;SDS011;66872;63.142;14.482;2024-03-23T06:10:22;0.70;;;0.70;;
16531;SDS011;66872;63.142;14.482;2024-03-23T06:12:48;0.80;;;0.80;;
16531;SDS011;66872;63.142;14.482;2024-03-23T06:15:16;1.00;;;0.80;;
16531;SDS011;66872;63.142;14.482;2024-03-23T06:17:42;0.70;;;0.70;;
16531;SDS011;66872;63.142;14.482;2024-03-23T06:20:08;0.73;;;0.73;;
16531;SDS011;66872;63.142;14.482;2024-03-23T06:22:35;1.10;;;1.00;;
16531;SDS011;66872;63.142;14.482;2024-03-23T06:25:01;0.70;;;0.70;;
16531;SDS011;66872;63.142;14.482;2024-03-23T06:27:26;0.77;;;0.77;;
16531;SDS011;66872;63.142;14.482;2024-03-23T06:29:52;0.70;;;0.70;;
16531;SDS011;66872;63.142;14.482;2024-03-23T06:32:18;0.73;;;0.73;;
16531;SDS011;66872;63.142;14.482;2024-03-23T06:34:43;0.67;;;0.67;;
16531;SDS011;66872;63.142;14.482;2024-03-23T06:37:10;0.80;;;0.80;;
16531;SDS011;66872;63.142;14.482;2024-03-23T06:39:39;0.70;;;0.70;;
16531;SDS011;66872;63.142;14.482;2024-03-23T06:42:04;0.70;;;0.70;;
16531;SDS011;66872;63.142;14.482;2024-03-23T06:44:31;0.80;;;0.80;;
16531;SDS011;66872;63.142;14.482;2024-03-23T06:46:57;0.73;;;0.73;;
16531;SDS011;66872;63.142;14.482;2024-03-23T06:49:23;1.07;;;0.83;;
16531;SDS011;66872;63.142;14.482;2024-03-23T06:51:49;0.60;;;0.60;;
16531;SDS011;66872;63.142;14.482;2024-03-23T06:54:15;0.50;;;0.50;;
16531;SDS011;66872;63.142;14.482;2024-03-23T06:56:44;0.70;;;0.70;;
16531;SDS011;66872;63.142;14.482;2024-03-23T06:59:10;0.70;;;0.70;;
16531;SDS011;66872;63.142;14.482;2024-03-23T07:01:35;0.67;;;0.60;;
16531;SDS011;66872;63.142;14.482;2024-03-23T07:04:01;0.70;;;0.70;;
16531;SDS011;66872;63.142;14.482;2024-03-23T07:06:27;0.60;;;0.60;;
16531;SDS011;66872;63.142;14.482;2024-03-23T07:08:53;1.00;;;0.90;;
16531;SDS011;66872;63.142;14.482;2024-03-23T07:11:19;0.67;;;0.67;;
16531;SDS011;66872;63.142;14.482;2024-03-23T07:13:46;0.80;;;0.80;;
16531;SDS011;66872;63.142;14.482;2024-03-23T07:16:12;0.70;;;0.70;;
16531;SDS011;66872;63.142;14.482;2024-03-23T07:18:38;0.60;;;0.60;;
16531;SDS011;66872;63.142;14.482;2024-03-23T07:21:04;0.70;;;0.70;;
16531;SDS011;66872;63.142;14.482;2024-03-23T07:23:31;0.77;;;0.77;;
16531;SDS011;66872;63.142;14.482;2024-03-23T07:28:23;0.70;;;0.70;;
16531;SDS011;66872;63.142;14.482;2024-03-23T07:31:01;0.70;;;0.70;;
16531;SDS011;66872;63.142;14.482;2024-03-23T07:33:27;0.53;;;0.53;;
16531;SDS011;66872;63.142;14.482;2024-03-23T07:35:53;1.10;;;0.83;;
16531;SDS011;66872;63.142;14.482;2024-03-23T07:38:19;0.53;;;0.53;;
16531;SDS011;66872;63.142;14.482;2024-03-23T07:40:44;0.63;;;0.63;;
16531;SDS011;66872;63.142;14.482;2024-03-23T07:43:10;0.60;;;0.60;;
16531;SDS011;66872;63.142;14.482;2024-03-23T07:45:35;0.60;;;0.60;;
16531;SDS011;66872;63.142;14.482;2024-03-23T07:48:03;0.70;;;0.70;;
16531;SDS011;66872;63.142;14.482;2024-03-23T07:50:29;0.60;;;0.60;;
16531;SDS011;66872;63.142;14.482;2024-03-23T07:52:54;0.80;;;0.80;;
16531;SDS011;66872;63.142;14.482;2024-03-23T07:55:20;0.80;;;0.80;;
16531;SDS011;66872;63.142;14.482;2024-03-23T07:57:46;0.87;;;0.87;;
16531;SDS011;66872;63.142;14.482;2024-03-23T08:00:12;0.60;;;0.60;;
16531;SDS011;66872;63.142;14.482;2024-03-23T08:02:39;0.60;;;0.60;;
16531;SDS011;66872;63.142;14.482;2024-03-23T08:05:05;0.53;;;0.53;;
16531;SDS011;66872;63.142;14.482;2024-03-23T08:07:30;0.50;;;0.50;;
16531;SDS011;66872;63.142;14.482;2024-03-23T08:09:56;0.70;;;0.70;;
16531;SDS011;66872;63.142;14.482;2024-03-23T08:12:24;0.83;;;0.83;;
16531;SDS011;66872;63.142;14.482;2024-03-23T08:14:49;0.70;;;0.70;;
16531;SDS011;66872;63.142;14.482;2024-03-23T08:17:15;0.77;;;0.73;;
16531;SDS011;66872;63.142;14.482;2024-03-23T08:19:40;0.70;;;0.70;;
16531;SDS011;66872;63.142;14.482;2024-03-23T08:22:06;0.60;;;0.60;;
16531;SDS011;66872;63.142;14.482;2024-03-23T08:24:32;0.80;;;0.80;;
16531;SDS011;66872;63.142;14.482;2024-03-23T08:26:59;0.87;;;0.83;;
16531;SDS011;66872;63.142;14.482;2024-03-23T08:29:25;0.53;;;0.53;;
16531;SDS011;66872;63.142;14.482;2024-03-23T08:31:50;0.80;;;0.80;;
16531;SDS011;66872;63.142;14.482;2024-03-23T08:34:16;0.63;;;0.63;;
16531;SDS011;66872;63.142;14.482;2024-03-23T08:36:41;0.70;;;0.70;;
16531;SDS011;66872;63.142;14.482;2024-03-23T08:39:07;0.50;;;0.50;;
16531;SDS011;66872;63.142;14.482;2024-03-23T08:41:33;0.70;;;0.70;;
16531;SDS011;66872;63.142;14.482;2024-03-23T08:43:59;0.80;;;0.80;;
16531;SDS011;66872;63.142;14.482;2024-03-23T08:46:25;0.60;;;0.60;;
16531;SDS011;66872;63.142;14.482;2024-03-23T08:48:50;0.73;;;0.73;;
16531;SDS011;66872;63.142;14.482;2024-03-23T08:51:17;0.80;;;0.80;;
16531;SDS011;66872;63.142;14.482;2024-03-23T08:53:43;0.63;;;0.63;;
16531;SDS011;66872;63.142;14.482;2024-03-23T08:56:10;0.40;;;0.40;;
16531;SDS011;66872;63.142;14.482;2024-03-23T08:58:36;1.00;;;0.80;;
16531;SDS011;66872;63.142;14.482;2024-03-23T09:01:04;0.83;;;0.70;;
16531;SDS011;66872;63.142;14.482;2024-03-23T09:03:34;0.70;;;0.70;;
16531;SDS011;66872;63.142;14.482;2024-03-23T09:06:00;0.57;;;0.57;;
16531;SDS011;66872;63.142;14.482;2024-03-23T09:08:31;0.50;;;0.50;;
16531;SDS011;66872;63.142;14.482;2024-03-23T09:10:56;0.47;;;0.47;;
16531;SDS011;66872;63.142;14.482;2024-03-23T09:13:22;0.50;;;0.50;;
16531;SDS011;66872;63.142;14.482;2024-03-23T09:15:48;0.50;;;0.50;;
16531;SDS011;66872;63.142;14.482;2024-03-23T09:18:16;0.60;;;0.60;;
16531;SDS011;66872;63.142;14.482;2024-03-23T09:20:43;0.63;;;0.63;;
16531;SDS011;66872;63.142;14.482;2024-03-23T09:23:09;0.50;;;0.50;;
16531;SDS011;66872;63.142;14.482;2024-03-23T09:25:38;0.50;;;0.50;;
16531;SDS011;66872;63.142;14.482;2024-03-23T09:28:04;0.53;;;0.53;;
16531;SDS011;66872;63.142;14.482;2024-03-23T09:30:32;0.60;;;0.60;;
16531;SDS011;66872;63.142;14.482;2024-03-23T09:32:58;0.60;;;0.60;;
16531;SDS011;66872;63.142;14.482;2024-03-23T09:35:24;0.67;;;0.67;;
16531;SDS011;66872;63.142;14.482;2024-03-23T09:37:50;0.47;;;0.47;;
16531;SDS011;66872;63.142;14.482;2024-03-23T09:40:15;0.40;;;0.40;;
16531;SDS011;66872;63.142;14.482;2024-03-23T09:42:41;0.60;;;0.60;;
16531;SDS011;66872;63.142;14.482;2024-03-23T09:45:16;0.60;;;0.60;;
16531;SDS011;66872;63.142;14.482;2024-03-23T09:47:45;0.80;;;0.80;;
16531;SDS011;66872;63.142;14.482;2024-03-23T09:50:12;0.80;;;0.73;;
16531;SDS011;66872;63.142;14.482;2024-03-23T09:52:38;0.53;;;0.53;;
16531;SDS011;66872;63.142;14.482;2024-03-23T09:55:05;0.70;;;0.70;;
16531;SDS011;66872;63.142;14.482;2024-03-23T09:57:31;0.70;;;0.70;;
16531;SDS011;66872;63.142;14.482;2024-03-23T09:59:56;0.60;;;0.60;;
16531;SDS011;66872;63.142;14.482;2024-03-23T10:02:23;0.70;;;0.70;;
16531;SDS011;66872;63.142;14.482;2024-03-23T10:04:49;0.30;;;0.30;;
16531;SDS011;66872;63.142;14.482;2024-03-23T10:07:15;0.53;;;0.53;;
16531;SDS011;66872;63.142;14.482;2024-03-23T10:09:43;0.50;;;0.50;;
16531;SDS011;66872;63.142;14.482;2024-03-23T10:12:12;0.50;;;0.50;;
16531;SDS011;66872;63.142;14.482;2024-03-23T10:14:40;0.57;;;0.57;;
16531;SDS011;66872;63.142;14.482;2024-03-23T10:17:15;0.53;;;0.40;;
16531;SDS011;66872;63.142;14.482;2024-03-23T10:19:45;0.50;;;0.50;;
16531;SDS011;66872;63.142;14.482;2024-03-23T10:22:18;0.73;;;0.60;;
16531;SDS011;66872;63.142;14.482;2024-03-23T10:24:48;0.70;;;0.70;;
16531;SDS011;66872;63.142;14.482;2024-03-23T10:27:20;0.50;;;0.50;;
16531;SDS011;66872;63.142;14.482;2024-03-23T10:29:47;0.53;;;0.53;;
16531;SDS011;66872;63.142;14.482;2024-03-23T10:32:14;0.63;;;0.63;;
16531;SDS011;66872;63.142;14.482;2024-03-23T10:34:43;0.50;;;0.50;;
16531;SDS011;66872;63.142;14.482;2024-03-23T10:37:10;0.43;;;0.43;;
16531;SDS011;66872;63.142;14.482;2024-03-23T10:39:37;0.50;;;0.50;;
16531;SDS011;66872;63.142;14.482;2024-03-23T10:42:04;0.30;;;0.30;;
16531;SDS011;66872;63.142;14.482;2024-03-23T10:44:35;0.43;;;0.43;;
16531;SDS011;66872;63.142;14.482;2024-03-23T10:47:01;0.60;;;0.60;;
16531;SDS011;66872;63.142;14.482;2024-03-23T10:49:34;0.50;;;0.50;;
16531;SDS011;66872;63.142;14.482;2024-03-23T10:52:03;2.00;;;0.80;;
16531;SDS011;66872;63.142;14.482;2024-03-23T10:54:30;180.50;;;17.07;;
16531;SDS011;66872;63.142;14.482;2024-03-23T10:56:59;73.97;;;7.13;;
16531;SDS011;66872;63.142;14.482;2024-03-23T10:59:29;64.47;;;7.20;;
16531;SDS011;66872;63.142;14.482;2024-03-23T11:01:57;51.80;;;5.63;;
16531;SDS011;66872;63.142;14.482;2024-03-23T11:04:33;44.67;;;4.90;;
16531;SDS011;66872;63.142;14.482;2024-03-23T11:06:59;41.07;;;5.87;;
16531;SDS011;66872;63.142;14.482;2024-03-23T11:14:43;15.67;;;3.17;;
16531;SDS011;66872;63.142;14.482;2024-03-23T11:17:09;25.90;;;3.73;;
16531;SDS011;66872;63.142;14.482;2024-03-23T11:19:38;20.10;;;3.57;;
16531;SDS011;66872;63.142;14.482;2024-03-23T11:22:04;19.53;;;3.83;;
16531;SDS011;66872;63.142;14.482;2024-03-23T11:24:30;16.77;;;3.43;;
16531;SDS011;66872;63.142;14.482;2024-03-23T11:26:56;19.37;;;3.00;;
16531;SDS011;66872;63.142;14.482;2024-03-23T11:29:25;14.03;;;2.30;;
16531;SDS011;66872;63.142;14.482;2024-03-23T11:31:52;15.37;;;2.50;;
16531;SDS011;66872;63.142;14.482;2024-03-23T11:34:21;13.17;;;1.80;;
16531;SDS011;66872;63.142;14.482;2024-03-23T11:36:47;12.80;;;2.30;;
16531;SDS011;66872;63.142;14.482;2024-03-23T11:39:16;9.00;;;2.00;;
16531;SDS011;66872;63.142;14.482;2024-03-23T11:41:46;12.70;;;1.93;;
16531;SDS011;66872;63.142;14.482;2024-03-23T11:44:16;6.63;;;1.63;;
16531;SDS011;66872;63.142;14.482;2024-03-23T11:46:45;6.53;;;1.93;;
16531;SDS011;66872;63.142;14.482;2024-03-23T11:49:21;10.97;;;2.20;;
16531;SDS011;66872;63.142;14.482;2024-03-23T11:51:47;7.03;;;2.17;;
16531;SDS011;66872;63.142;14.482;2024-03-23T11:54:13;6.77;;;1.73;;
16531;SDS011;66872;63.142;14.482;2024-03-23T11:56:39;6.00;;;1.60;;
16531;SDS011;66872;63.142;14.482;2024-03-23T11:59:06;6.00;;;1.50;;
16531;SDS011;66872;63.142;14.482;2024-03-23T12:01:31;4.47;;;1.73;;
16531;SDS011;66872;63.142;14.482;2024-03-23T12:03:57;5.93;;;1.43;;
16531;SDS011;66872;63.142;14.482;2024-03-23T12:06:23;3.13;;;1.07;;
16531;SDS011;66872;63.142;14.482;2024-03-23T12:08:48;6.80;;;1.60;;
16531;SDS011;66872;63.142;14.482;2024-03-23T12:11:17;5.43;;;1.57;;
16531;SDS011;66872;63.142;14.482;2024-03-23T12:13:44;4.87;;;1.60;;
16531;SDS011;66872;63.142;14.482;2024-03-23T12:16:12;5.17;;;1.47;;
16531;SDS011;66872;63.142;14.482;2024-03-23T12:18:39;3.53;;;1.60;;
16531;SDS011;66872;63.142;14.482;2024-03-23T12:21:10;5.30;;;1.50;;
16531;SDS011;66872;63.142;14.482;2024-03-23T12:23:38;5.33;;;1.40;;
16531;SDS011;66872;63.142;14.482;2024-03-23T12:26:04;4.17;;;1.47;;
16531;SDS011;66872;63.142;14.482;2024-03-23T12:28:30;4.83;;;1.10;;
16531;SDS011;66872;63.142;14.482;2024-03-23T12:30:55;6.20;;;1.30;;
16531;SDS011;66872;63.142;14.482;2024-03-23T12:33:21;2.97;;;1.20;;
16531;SDS011;66872;63.142;14.482;2024-03-23T12:35:47;2.70;;;1.10;;
16531;SDS011;66872;63.142;14.482;2024-03-23T12:38:16;3.57;;;1.20;;
16531;SDS011;66872;63.142;14.482;2024-03-23T12:40:46;2.87;;;1.07;;
16531;SDS011;66872;63.142;14.482;2024-03-23T12:43:13;3.17;;;1.20;;
16531;SDS011;66872;63.142;14.482;2024-03-23T12:45:39;2.13;;;1.10;;
16531;SDS011;66872;63.142;14.482;2024-03-23T12:48:04;6.23;;;1.37;;
16531;SDS011;66872;63.142;14.482;2024-03-23T12:50:30;3.07;;;1.40;;
16531;SDS011;66872;63.142;14.482;2024-03-23T12:52:56;3.57;;;1.10;;
16531;SDS011;66872;63.142;14.482;2024-03-23T12:55:22;5.80;;;1.03;;
16531;SDS011;66872;63.142;14.482;2024-03-23T12:57:47;3.57;;;1.20;;
16531;SDS011;66872;63.142;14.482;2024-03-23T13:00:13;3.13;;;1.10;;
16531;SDS011;66872;63.142;14.482;2024-03-23T13:02:40;2.20;;;0.80;;
16531;SDS011;66872;63.142;14.482;2024-03-23T13:05:06;2.07;;;1.00;;
16531;SDS011;66872;63.142;14.482;2024-03-23T13:07:33;1.97;;;1.00;;
16531;SDS011;66872;63.142;14.482;2024-03-23T13:10:00;2.70;;;1.00;;
16531;SDS011;66872;63.142;14.482;2024-03-23T13:12:26;2.17;;;0.80;;
16531;SDS011;66872;63.142;14.482;2024-03-23T13:14:51;2.57;;;0.93;;
16531;SDS011;66872;63.142;14.482;2024-03-23T13:17:17;1.10;;;0.70;;
16531;SDS011;66872;63.142;14.482;2024-03-23T13:19:43;7.30;;;1.43;;
16531;SDS011;66872;63.142;14.482;2024-03-23T13:22:09;5.30;;;1.37;;
16531;SDS011;66872;63.142;14.482;2024-03-23T13:24:38;3.33;;;1.50;;
16531;SDS011;66872;63.142;14.482;2024-03-23T13:27:03;4.73;;;1.63;;
16531;SDS011;66872;63.142;14.482;2024-03-23T13:29:32;4.30;;;1.33;;
16531;SDS011;66872;63.142;14.482;2024-03-23T13:32:02;9.77;;;1.30;;
16531;SDS011;66872;63.142;14.482;2024-03-23T13:34:28;5.53;;;1.60;;
16531;SDS011;66872;63.142;14.482;2024-03-23T13:36:54;1.87;;;1.00;;
16531;SDS011;66872;63.142;14.482;2024-03-23T13:39:23;5.10;;;1.20;;
16531;SDS011;66872;63.142;14.482;2024-03-23T13:41:48;3.07;;;1.00;;
16531;SDS011;66872;63.142;14.482;2024-03-23T13:44:14;2.27;;;1.00;;
16531;SDS011;66872;63.142;14.482;2024-03-23T13:46:41;2.13;;;0.80;;
16531;SDS011;66872;63.142;14.482;2024-03-23T13:49:08;2.33;;;1.07;;
16531;SDS011;66872;63.142;14.482;2024-03-23T13:51:49;6.40;;;1.17;;
16531;SDS011;66872;63.142;14.482;2024-03-23T13:54:15;4.63;;;0.90;;
16531;SDS011;66872;63.142;14.482;2024-03-23T13:56:40;5.30;;;0.97;;
16531;SDS011;66872;63.142;14.482;2024-03-23T13:59:06;3.90;;;1.20;;
16531;SDS011;66872;63.142;14.482;2024-03-23T14:01:32;71.20;;;9.03;;
16531;SDS011;66872;63.142;14.482;2024-03-23T14:03:57;70.47;;;7.37;;
16531;SDS011;66872;63.142;14.482;2024-03-23T14:06:23;45.47;;;6.63;;
16531;SDS011;66872;63.142;14.482;2024-03-23T14:08:49;40.10;;;4.97;;
16531;SDS011;66872;63.142;14.482;2024-03-23T14:11:17;26.73;;;3.87;;
16531;SDS011;66872;63.142;14.482;2024-03-23T14:13:43;21.87;;;3.37;;
16531;SDS011;66872;63.142;14.482;2024-03-23T14:16:09;26.03;;;4.73;;
16531;SDS011;66872;63.142;14.482;2024-03-23T14:18:35;30.27;;;3.87;;
16531;SDS011;66872;63.142;14.482;2024-03-23T14:21:01;22.87;;;3.63;;
16531;SDS011;66872;63.142;14.482;2024-03-23T14:23:27;19.07;;;2.93;;
16531;SDS011;66872;63.142;14.482;2024-03-23T14:25:54;21.43;;;2.63;;
16531;SDS011;66872;63.142;14.482;2024-03-23T14:28:21;11.17;;;2.80;;
16531;SDS011;66872;63.142;14.482;2024-03-23T14:30:50;15.10;;;2.40;;
16531;SDS011;66872;63.142;14.482;2024-03-23T14:33:16;9.60;;;2.03;;
16531;SDS011;66872;63.142;14.482;2024-03-23T14:35:43;9.03;;;2.03;;
16531;SDS011;66872;63.142;14.482;2024-03-23T14:38:09;11.93;;;2.00;;
16531;SDS011;66872;63.142;14.482;2024-03-23T14:40:34;9.63;;;1.70;;
16531;SDS011;66872;63.142;14.482;2024-03-23T14:43:00;4.87;;;1.80;;
16531;SDS011;66872;63.142;14.482;2024-03-23T14:45:27;6.73;;;1.47;;
16531;SDS011;66872;63.142;14.482;2024-03-23T14:47:53;7.43;;;1.80;;
16531;SDS011;66872;63.142;14.482;2024-03-23T14:50:18;7.87;;;1.50;;
16531;SDS011;66872;63.142;14.482;2024-03-23T14:52:45;3.30;;;1.60;;
16531;SDS011;66872;63.142;14.482;2024-03-23T14:55:11;7.53;;;1.50;;
16531;SDS011;66872;63.142;14.482;2024-03-23T14:57:37;7.03;;;1.60;;
16531;SDS011;66872;63.142;14.482;2024-03-23T15:00:09;4.20;;;1.47;;
16531;SDS011;66872;63.142;14.482;2024-03-23T15:02:39;4.93;;;1.33;;
16531;SDS011;66872;63.142;14.482;2024-03-23T15:05:05;5.17;;;1.30;;
16531;SDS011;66872;63.142;14.482;2024-03-23T15:07:35;4.30;;;1.20;;
16531;SDS011;66872;63.142;14.482;2024-03-23T15:10:03;5.83;;;1.40;;
16531;SDS011;66872;63.142;14.482;2024-03-23T15:12:30;4.23;;;1.23;;
16531;SDS011;66872;63.142;14.482;2024-03-23T15:14:58;1.57;;;0.70;;
16531;SDS011;66872;63.142;14.482;2024-03-23T15:17:23;1.57;;;0.90;;
16531;SDS011;66872;63.142;14.482;2024-03-23T15:19:49;4.87;;;1.30;;
16531;SDS011;66872;63.142;14.482;2024-03-23T15:22:15;2.50;;;1.20;;
16531;SDS011;66872;63.142;14.482;2024-03-23T15:24:40;4.53;;;1.00;;
16531;SDS011;66872;63.142;14.482;2024-03-23T15:27:06;2.17;;;0.90;;
16531;SDS011;66872;63.142;14.482;2024-03-23T15:29:33;3.57;;;0.90;;
16531;SDS011;66872;63.142;14.482;2024-03-23T15:31:59;8.50;;;1.40;;